createdAt,value
2023-02-12T00:05:06.222Z,26.42
2023-02-12T00:07:58.464Z,23.98
2023-02-12T00:10:49.924Z,24.27
2023-02-12T00:13:41.947Z,24.05
2023-02-12T00:16:33.485Z,25.73
2023-02-12T00:19:24.564Z,24.45
2023-02-12T00:22:17.757Z,22.70
2023-02-12T00:25:10.555Z,22.13
2023-02-12T00:28:02.228Z,23.05
2023-02-12T00:30:53.870Z,21.33
2023-02-12T00:33:45.918Z,17.42
2023-02-12T00:36:37.739Z,25.00
2023-02-12T00:39:29.190Z,24.27
2023-02-12T00:45:03.027Z,27.32
2023-02-12T00:47:55.323Z,24.67
2023-02-12T00:50:49.007Z,28.52
2023-02-12T00:53:40.309Z,25.55
2023-02-12T00:56:31.754Z,27.37
2023-02-12T00:59:23.204Z,27.15
2023-02-12T01:02:14.842Z,26.68
2023-02-12T01:05:06.748Z,25.17
2023-02-12T01:07:57.993Z,26.97
2023-02-12T01:10:57.723Z,26.00
2023-02-12T01:13:49.328Z,29.92
2023-02-12T01:16:40.916Z,24.50
2023-02-12T01:19:32.494Z,24.45
2023-02-12T01:22:23.919Z,24.85
2023-02-12T01:28:00.155Z,26.65
2023-02-12T01:33:36.395Z,27.77
2023-02-12T01:39:08.280Z,23.20
2023-02-12T01:41:59.718Z,24.52
2023-02-12T01:45:31.077Z,24.82
2023-02-12T01:48:25.450Z,22.40
2023-02-12T01:54:08.974Z,26.68
2023-02-12T01:57:16.186Z,25.48
2023-02-12T02:00:11.912Z,25.57
2023-02-12T02:03:05.995Z,24.57
2023-02-12T02:06:00.575Z,23.18
2023-02-12T02:08:52.677Z,24.15
2023-02-12T02:14:35.914Z,23.57
2023-02-12T02:20:55.688Z,23.90
2023-02-12T02:24:33.383Z,24.32
2023-02-12T02:30:34.503Z,29.55
2023-02-12T02:33:40.186Z,25.02
2023-02-12T02:39:17.581Z,23.50
2023-02-12T02:42:11.879Z,21.48
2023-02-12T02:45:06.191Z,23.73
2023-02-12T02:53:24.426Z,26.62
2023-02-12T02:56:19.564Z,23.90
2023-02-12T03:01:56.328Z,23.75
2023-02-12T03:04:50.605Z,24.18
2023-02-12T03:07:45.245Z,26.52
2023-02-12T03:13:28.290Z,26.07
2023-02-12T03:16:25.419Z,22.60
2023-02-12T03:19:20.621Z,25.45
2023-02-12T03:24:52.935Z,25.55
2023-02-12T03:33:07.233Z,22.05
2023-02-12T03:36:03.652Z,24.57
2023-02-12T03:38:57.936Z,23.35
2023-02-12T03:41:53.157Z,24.63
2023-02-12T03:44:51.428Z,24.37
2023-02-12T03:53:09.536Z,23.12
2023-02-12T03:56:03.722Z,20.20
2023-02-12T04:01:37.142Z,22.87
2023-02-12T04:07:07.739Z,20.82
2023-02-12T04:09:59.114Z,25.27
2023-02-12T04:15:41.658Z,21.62
2023-02-12T04:18:37.866Z,20.12
2023-02-12T04:24:20.834Z,20.30
2023-02-12T04:27:15.876Z,22.27
2023-02-12T04:30:11.478Z,20.35
2023-02-12T04:33:05.723Z,23.02
2023-02-12T04:38:44.493Z,20.88
2023-02-12T04:44:20.628Z,21.25
2023-02-12T04:47:14.200Z,20.90
2023-02-12T04:50:05.697Z,19.60
2023-02-12T04:52:56.778Z,19.07
2023-02-12T04:55:49.707Z,21.85
2023-02-12T04:58:41.129Z,20.15
2023-02-12T05:01:34.712Z,19.42
2023-02-12T05:04:26.542Z,21.70
2023-02-12T05:07:18.345Z,20.02
2023-02-12T05:10:12.276Z,21.97
2023-02-12T05:13:04.358Z,20.40
2023-02-12T05:15:56.042Z,21.20
2023-02-12T05:18:47.614Z,21.07
2023-02-12T05:24:21.769Z,20.45
2023-02-12T05:27:13.122Z,20.62
2023-02-12T05:30:05.679Z,20.68
2023-02-12T05:35:38.026Z,22.27
2023-02-12T05:38:29.306Z,22.22
2023-02-12T05:41:23.963Z,21.62
2023-02-12T05:44:15.594Z,20.37
2023-02-12T05:47:07.313Z,23.00
2023-02-12T05:49:59.533Z,20.25
2023-02-12T05:55:36.044Z,22.80
2023-02-12T05:58:27.502Z,18.37
2023-02-12T06:03:57.512Z,19.67
2023-02-12T06:06:48.990Z,20.17
2023-02-12T06:09:40.644Z,19.57
2023-02-12T06:12:31.912Z,19.48
2023-02-12T06:18:01.638Z,19.20
2023-02-12T06:23:32.740Z,21.20
2023-02-12T06:26:24.694Z,18.20
2023-02-12T06:29:18.030Z,19.40
2023-02-12T06:32:09.541Z,19.95
2023-02-12T06:35:01.198Z,20.48
2023-02-12T06:37:52.750Z,18.42
2023-02-12T06:40:45.013Z,19.17
2023-02-12T06:46:17.520Z,20.30
2023-02-12T06:51:48.780Z,17.95
2023-02-12T06:57:18.966Z,20.35
2023-02-12T07:00:12.772Z,21.45
2023-02-12T07:03:04.637Z,20.55
2023-02-12T07:05:56.435Z,18.20
2023-02-12T07:08:49.102Z,19.20
2023-02-12T07:11:41.100Z,21.37
2023-02-12T07:14:32.964Z,17.20
2023-02-12T07:17:24.499Z,20.40
2023-02-12T07:20:16.756Z,18.67
2023-02-12T07:23:08.038Z,19.85
2023-02-12T07:31:22.539Z,18.12
2023-02-12T07:34:14.301Z,17.42
2023-02-12T07:37:07.107Z,17.62
2023-02-12T07:42:44.022Z,19.87
2023-02-12T07:50:54.611Z,21.05
2023-02-12T07:53:46.178Z,19.95
2023-02-12T07:56:40.091Z,17.98
2023-02-12T07:59:31.658Z,17.98
2023-02-12T08:02:25.020Z,20.10
2023-02-12T08:05:16.682Z,19.92
2023-02-12T08:10:49.270Z,19.65
2023-02-12T08:16:23.892Z,19.42
2023-02-12T08:19:20.180Z,18.52
2023-02-12T08:22:09.091Z,18.37
2023-02-12T08:25:00.421Z,16.48
2023-02-12T08:27:52.118Z,17.25
2023-02-12T08:30:44.014Z,19.07
2023-02-12T08:36:24.200Z,19.03
2023-02-12T08:41:58.175Z,18.85
2023-02-12T08:47:31.241Z,17.17
2023-02-12T08:50:22.064Z,17.05
2023-02-12T08:53:13.312Z,19.05
2023-02-12T08:56:05.540Z,16.12
2023-02-12T08:58:58.035Z,16.07
2023-02-12T09:01:52.508Z,20.32
2023-02-12T09:07:28.403Z,18.02
2023-02-12T09:10:20.534Z,17.50
2023-02-12T09:16:01.745Z,18.48
2023-02-12T09:18:53.305Z,16.97
2023-02-12T09:21:45.192Z,14.25
2023-02-12T09:29:54.990Z,19.60
2023-02-12T09:38:05.935Z,15.25
2023-02-12T09:43:41.008Z,14.63
2023-02-12T09:49:19.427Z,14.65
2023-02-12T09:54:54.744Z,14.20
2023-02-12T09:57:50.481Z,13.78
2023-02-12T10:03:35.177Z,16.05
2023-02-12T10:09:18.345Z,15.13
2023-02-12T10:12:14.499Z,15.48
2023-02-12T10:15:21.083Z,16.62
2023-02-12T10:18:24.371Z,12.75
2023-02-12T10:21:24.042Z,12.88
2023-02-12T10:24:29.269Z,14.07
2023-02-12T10:27:25.004Z,13.78
2023-02-12T10:30:27.888Z,18.30
2023-02-12T10:38:47.332Z,12.23
2023-02-12T10:44:19.260Z,11.70
2023-02-12T10:47:23.323Z,10.90
2023-02-12T10:53:09.355Z,21.37
2023-02-12T10:56:14.657Z,17.90
2023-02-12T10:59:06.541Z,17.12
2023-02-12T11:01:58.641Z,16.37
2023-02-12T11:04:50.808Z,14.47
2023-02-12T11:07:49.150Z,16.93
2023-02-12T11:27:36.890Z,17.07
2023-02-12T11:30:28.936Z,18.98
2023-02-12T11:33:26.385Z,18.82
2023-02-12T11:36:21.647Z,17.73
2023-02-12T11:39:22.503Z,18.60
2023-02-12T11:42:20.565Z,19.23
2023-02-12T11:45:21.465Z,19.05
2023-02-12T11:52:26.866Z,18.57
2023-02-12T11:55:25.326Z,22.80
2023-02-12T12:15:08.264Z,21.70
2023-02-12T12:20:57.594Z,21.42
2023-02-12T12:49:26.339Z,19.90
2023-02-12T12:52:53.868Z,20.20
2023-02-12T12:59:02.755Z,18.62
2023-02-12T13:02:06.446Z,18.90
2023-02-12T13:05:26.975Z,20.75
2023-02-12T13:08:23.486Z,17.12
2023-02-12T13:11:23.141Z,19.60
2023-02-12T13:14:29.612Z,21.55
2023-02-12T13:17:24.834Z,17.02
2023-02-12T13:20:20.336Z,15.85
2023-02-12T13:23:17.902Z,17.70
2023-02-12T13:26:15.046Z,18.07
2023-02-12T13:29:09.446Z,18.17
2023-02-12T13:36:52.690Z,17.85
2023-02-12T13:39:47.650Z,19.17
2023-02-12T13:42:53.639Z,16.48
2023-02-12T13:45:49.690Z,17.75
2023-02-12T15:53:25.812Z,21.65
2023-02-12T15:56:20.290Z,19.23
2023-02-12T15:59:21.563Z,20.40
2023-02-12T16:02:23.147Z,19.37
2023-02-12T16:05:26.384Z,22.25
2023-02-12T16:08:26.639Z,20.62
2023-02-12T20:59:20.979Z,17.52
2023-02-12T21:02:18.790Z,17.62
2023-02-12T21:05:11.851Z,16.12
2023-02-12T21:08:03.533Z,18.48
2023-02-12T21:11:02.543Z,16.45
2023-02-12T21:14:02.209Z,15.38
2023-02-12T21:16:48.427Z,16.10
2023-02-12T21:19:42.113Z,13.30
2023-02-12T21:22:33.889Z,13.60
2023-02-12T21:25:25.328Z,14.65
2023-02-12T21:28:16.541Z,14.47
2023-02-12T21:31:14.114Z,16.73
2023-02-12T21:34:07.932Z,13.22
2023-02-12T21:36:59.858Z,15.40
2023-02-12T21:39:52.571Z,15.08
2023-02-12T21:42:44.229Z,18.15
2023-02-12T21:45:35.740Z,18.42
2023-02-12T21:48:27.624Z,19.52
2023-02-12T21:51:24.304Z,18.77
2023-02-12T21:54:16.934Z,16.50
2023-02-12T21:57:16.601Z,19.00
2023-02-12T22:00:10.861Z,17.60
2023-02-12T22:03:06.392Z,17.07
2023-02-12T22:06:03.666Z,21.17
2023-02-12T22:33:44.019Z,21.27
2023-02-12T22:36:37.747Z,21.60
2023-02-12T22:39:30.659Z,23.38
2023-02-12T22:42:22.213Z,22.37
2023-02-12T23:02:25.680Z,23.77
2023-02-12T23:05:18.006Z,26.30
2023-02-12T23:08:09.984Z,26.12
2023-02-12T23:11:01.189Z,26.02
2023-02-12T23:13:53.194Z,24.47
2023-02-12T23:16:44.864Z,26.82
2023-02-12T23:19:36.294Z,24.72
2023-02-12T23:22:27.919Z,24.37
2023-02-12T23:25:19.611Z,24.43
2023-02-12T23:28:11.092Z,25.25
2023-02-12T23:31:04.774Z,23.57
2023-02-12T23:33:56.183Z,24.15
2023-02-12T23:39:48.384Z,21.87
2023-02-12T23:42:40.960Z,25.90
2023-02-12T23:45:32.767Z,24.45
2023-02-12T23:48:23.970Z,26.70
2023-02-12T23:51:15.382Z,24.75
2023-02-12T23:54:07.192Z,21.97
2023-02-12T23:57:01.236Z,24.92
2023-02-12T23:59:52.583Z,24.90
